sensor_id;sensor_type;location;lat;lon;timestamp;P1;durP1;ratioP1;P2;durP2;ratioP2
15071;SDS011;7635;56.696;13.002;2023-03-01T00:00:54;3.80;;;3.30;;
15071;SDS011;7635;56.696;13.002;2023-03-01T00:03:27;4.17;;;3.17;;
15071;SDS011;7635;56.696;13.002;2023-03-01T00:05:55;3.97;;;3.13;;
15071;SDS011;7635;56.696;13.002;2023-03-01T00:08:22;4.67;;;3.63;;
15071;SDS011;7635;56.696;13.002;2023-03-01T00:10:49;3.57;;;3.23;;
15071;SDS011;7635;56.696;13.002;2023-03-01T00:13:15;4.20;;;3.67;;
15071;SDS011;7635;56.696;13.002;2023-03-01T00:15:42;4.80;;;3.20;;
15071;SDS011;7635;56.696;13.002;2023-03-01T00:18:09;3.47;;;2.77;;
15071;SDS011;7635;56.696;13.002;2023-03-01T00:20:35;5.33;;;3.47;;
15071;SDS011;7635;56.696;13.002;2023-03-01T00:23:03;3.80;;;3.17;;
15071;SDS011;7635;56.696;13.002;2023-03-01T00:25:30;4.13;;;3.00;;
15071;SDS011;7635;56.696;13.002;2023-03-01T00:27:57;3.83;;;3.33;;
15071;SDS011;7635;56.696;13.002;2023-03-01T00:30:23;3.13;;;2.83;;
15071;SDS011;7635;56.696;13.002;2023-03-01T00:32:50;3.97;;;3.47;;
15071;SDS011;7635;56.696;13.002;2023-03-01T00:35:17;4.57;;;3.60;;
15071;SDS011;7635;56.696;13.002;2023-03-01T00:37:43;4.50;;;3.20;;
15071;SDS011;7635;56.696;13.002;2023-03-01T00:40:12;3.30;;;2.80;;
15071;SDS011;7635;56.696;13.002;2023-03-01T00:42:41;3.30;;;2.90;;
15071;SDS011;7635;56.696;13.002;2023-03-01T00:45:08;4.70;;;3.37;;
15071;SDS011;7635;56.696;13.002;2023-03-01T00:47:35;3.70;;;3.23;;
15071;SDS011;7635;56.696;13.002;2023-03-01T00:50:02;4.03;;;2.80;;
15071;SDS011;7635;56.696;13.002;2023-03-01T00:52:29;4.37;;;2.83;;
15071;SDS011;7635;56.696;13.002;2023-03-01T00:54:55;2.87;;;2.63;;
15071;SDS011;7635;56.696;13.002;2023-03-01T00:57:24;3.37;;;2.47;;
15071;SDS011;7635;56.696;13.002;2023-03-01T00:59:50;3.63;;;2.57;;
15071;SDS011;7635;56.696;13.002;2023-03-01T01:02:18;2.83;;;2.47;;
15071;SDS011;7635;56.696;13.002;2023-03-01T01:04:45;3.40;;;2.63;;
15071;SDS011;7635;56.696;13.002;2023-03-01T01:07:12;3.73;;;2.33;;
15071;SDS011;7635;56.696;13.002;2023-03-01T01:09:39;3.20;;;2.30;;
15071;SDS011;7635;56.696;13.002;2023-03-01T01:12:07;3.30;;;2.73;;
15071;SDS011;7635;56.696;13.002;2023-03-01T01:14:35;4.43;;;2.67;;
15071;SDS011;7635;56.696;13.002;2023-03-01T01:17:02;2.67;;;2.47;;
15071;SDS011;7635;56.696;13.002;2023-03-01T01:19:29;3.60;;;2.80;;
15071;SDS011;7635;56.696;13.002;2023-03-01T01:21:56;4.13;;;3.13;;
15071;SDS011;7635;56.696;13.002;2023-03-01T01:24:22;6.00;;;3.93;;
15071;SDS011;7635;56.696;13.002;2023-03-01T01:26:49;6.33;;;3.73;;
15071;SDS011;7635;56.696;13.002;2023-03-01T01:29:16;4.93;;;3.27;;
15071;SDS011;7635;56.696;13.002;2023-03-01T01:31:44;3.93;;;3.00;;
15071;SDS011;7635;56.696;13.002;2023-03-01T01:34:12;7.00;;;3.87;;
15071;SDS011;7635;56.696;13.002;2023-03-01T01:36:41;3.33;;;3.03;;
15071;SDS011;7635;56.696;13.002;2023-03-01T01:39:07;3.63;;;2.80;;
15071;SDS011;7635;56.696;13.002;2023-03-01T01:41:37;3.80;;;2.87;;
15071;SDS011;7635;56.696;13.002;2023-03-01T01:44:16;2.80;;;2.57;;
15071;SDS011;7635;56.696;13.002;2023-03-01T01:46:47;2.80;;;2.50;;
15071;SDS011;7635;56.696;13.002;2023-03-01T01:49:17;4.27;;;3.13;;
15071;SDS011;7635;56.696;13.002;2023-03-01T01:51:49;3.47;;;2.80;;
15071;SDS011;7635;56.696;13.002;2023-03-01T01:54:22;3.17;;;2.63;;
15071;SDS011;7635;56.696;13.002;2023-03-01T01:56:52;3.20;;;2.50;;
15071;SDS011;7635;56.696;13.002;2023-03-01T01:59:23;3.07;;;2.67;;
15071;SDS011;7635;56.696;13.002;2023-03-01T02:01:52;4.83;;;2.73;;
15071;SDS011;7635;56.696;13.002;2023-03-01T02:04:20;3.03;;;2.73;;
15071;SDS011;7635;56.696;13.002;2023-03-01T02:06:48;4.03;;;3.07;;
15071;SDS011;7635;56.696;13.002;2023-03-01T02:09:19;4.30;;;2.80;;
15071;SDS011;7635;56.696;13.002;2023-03-01T02:11:47;4.20;;;2.70;;
15071;SDS011;7635;56.696;13.002;2023-03-01T02:14:16;4.37;;;2.90;;
15071;SDS011;7635;56.696;13.002;2023-03-01T02:16:43;4.00;;;2.70;;
15071;SDS011;7635;56.696;13.002;2023-03-01T02:19:14;4.03;;;2.93;;
15071;SDS011;7635;56.696;13.002;2023-03-01T02:21:50;3.77;;;2.60;;
15071;SDS011;7635;56.696;13.002;2023-03-01T02:24:25;4.23;;;2.83;;
15071;SDS011;7635;56.696;13.002;2023-03-01T02:26:59;4.27;;;2.50;;
15071;SDS011;7635;56.696;13.002;2023-03-01T02:29:28;5.33;;;2.67;;
15071;SDS011;7635;56.696;13.002;2023-03-01T02:31:56;3.97;;;3.10;;
15071;SDS011;7635;56.696;13.002;2023-03-01T02:34:24;4.23;;;2.90;;
15071;SDS011;7635;56.696;13.002;2023-03-01T02:36:52;3.40;;;2.90;;
15071;SDS011;7635;56.696;13.002;2023-03-01T02:39:23;3.83;;;2.97;;
15071;SDS011;7635;56.696;13.002;2023-03-01T02:41:53;3.67;;;2.80;;
15071;SDS011;7635;56.696;13.002;2023-03-01T02:44:22;4.43;;;3.07;;
15071;SDS011;7635;56.696;13.002;2023-03-01T02:46:51;3.27;;;2.33;;
15071;SDS011;7635;56.696;13.002;2023-03-01T02:49:21;3.23;;;2.40;;
15071;SDS011;7635;56.696;13.002;2023-03-01T02:51:56;3.43;;;2.60;;
15071;SDS011;7635;56.696;13.002;2023-03-01T02:54:48;6.33;;;2.80;;
15071;SDS011;7635;56.696;13.002;2023-03-01T02:57:17;2.70;;;2.30;;
15071;SDS011;7635;56.696;13.002;2023-03-01T02:59:46;2.97;;;2.50;;
15071;SDS011;7635;56.696;13.002;2023-03-01T03:02:23;4.47;;;2.77;;
15071;SDS011;7635;56.696;13.002;2023-03-01T03:05:01;3.17;;;2.50;;
15071;SDS011;7635;56.696;13.002;2023-03-01T03:07:31;2.93;;;2.33;;
15071;SDS011;7635;56.696;13.002;2023-03-01T03:09:58;4.83;;;3.37;;
15071;SDS011;7635;56.696;13.002;2023-03-01T03:12:25;3.63;;;2.80;;
15071;SDS011;7635;56.696;13.002;2023-03-01T03:14:51;4.07;;;2.93;;
15071;SDS011;7635;56.696;13.002;2023-03-01T03:17:18;5.20;;;3.53;;
15071;SDS011;7635;56.696;13.002;2023-03-01T03:19:46;6.70;;;4.27;;
15071;SDS011;7635;56.696;13.002;2023-03-01T03:22:13;7.10;;;4.97;;
15071;SDS011;7635;56.696;13.002;2023-03-01T03:24:39;6.40;;;4.20;;
15071;SDS011;7635;56.696;13.002;2023-03-01T03:27:06;6.93;;;4.20;;
15071;SDS011;7635;56.696;13.002;2023-03-01T03:29:33;6.87;;;3.83;;
15071;SDS011;7635;56.696;13.002;2023-03-01T03:32:00;5.13;;;3.43;;
15071;SDS011;7635;56.696;13.002;2023-03-01T03:34:28;5.33;;;3.47;;
15071;SDS011;7635;56.696;13.002;2023-03-01T03:36:56;4.00;;;2.70;;
15071;SDS011;7635;56.696;13.002;2023-03-01T03:39:24;4.87;;;3.37;;
15071;SDS011;7635;56.696;13.002;2023-03-01T03:41:51;4.00;;;2.63;;
15071;SDS011;7635;56.696;13.002;2023-03-01T03:44:18;3.60;;;2.50;;
15071;SDS011;7635;56.696;13.002;2023-03-01T03:46:45;2.70;;;2.10;;
15071;SDS011;7635;56.696;13.002;2023-03-01T03:49:12;3.53;;;2.43;;
15071;SDS011;7635;56.696;13.002;2023-03-01T03:51:38;3.27;;;2.20;;
15071;SDS011;7635;56.696;13.002;2023-03-01T03:54:06;4.27;;;2.67;;
15071;SDS011;7635;56.696;13.002;2023-03-01T03:56:33;4.67;;;2.50;;
15071;SDS011;7635;56.696;13.002;2023-03-01T03:59:00;4.17;;;2.60;;
15071;SDS011;7635;56.696;13.002;2023-03-01T04:01:26;2.67;;;2.23;;
15071;SDS011;7635;56.696;13.002;2023-03-01T04:03:53;2.90;;;2.27;;
15071;SDS011;7635;56.696;13.002;2023-03-01T04:06:20;4.47;;;2.40;;
15071;SDS011;7635;56.696;13.002;2023-03-01T04:08:47;2.17;;;1.90;;
15071;SDS011;7635;56.696;13.002;2023-03-01T04:11:17;3.53;;;2.13;;
15071;SDS011;7635;56.696;13.002;2023-03-01T04:13:53;3.60;;;2.37;;
15071;SDS011;7635;56.696;13.002;2023-03-01T04:16:21;3.97;;;2.40;;
15071;SDS011;7635;56.696;13.002;2023-03-01T04:18:48;3.40;;;2.40;;
15071;SDS011;7635;56.696;13.002;2023-03-01T04:21:15;3.43;;;2.40;;
15071;SDS011;7635;56.696;13.002;2023-03-01T04:23:42;3.10;;;2.30;;
15071;SDS011;7635;56.696;13.002;2023-03-01T04:26:08;3.67;;;2.53;;
15071;SDS011;7635;56.696;13.002;2023-03-01T04:28:37;2.30;;;2.10;;
15071;SDS011;7635;56.696;13.002;2023-03-01T04:31:08;2.87;;;2.07;;
15071;SDS011;7635;56.696;13.002;2023-03-01T04:33:38;4.23;;;2.20;;
15071;SDS011;7635;56.696;13.002;2023-03-01T04:36:07;3.20;;;2.40;;
15071;SDS011;7635;56.696;13.002;2023-03-01T04:38:34;3.50;;;2.40;;
15071;SDS011;7635;56.696;13.002;2023-03-01T04:41:02;2.47;;;2.10;;
15071;SDS011;7635;56.696;13.002;2023-03-01T04:43:29;3.17;;;2.20;;
15071;SDS011;7635;56.696;13.002;2023-03-01T04:46:01;2.37;;;2.07;;
15071;SDS011;7635;56.696;13.002;2023-03-01T04:48:28;3.00;;;2.50;;
15071;SDS011;7635;56.696;13.002;2023-03-01T04:50:56;3.27;;;2.60;;
15071;SDS011;7635;56.696;13.002;2023-03-01T04:53:22;2.97;;;2.37;;
15071;SDS011;7635;56.696;13.002;2023-03-01T04:55:49;2.83;;;2.10;;
15071;SDS011;7635;56.696;13.002;2023-03-01T04:58:16;2.40;;;2.03;;
15071;SDS011;7635;56.696;13.002;2023-03-01T05:00:43;2.47;;;2.07;;
15071;SDS011;7635;56.696;13.002;2023-03-01T05:03:11;3.90;;;2.10;;
15071;SDS011;7635;56.696;13.002;2023-03-01T05:05:41;4.00;;;2.20;;
15071;SDS011;7635;56.696;13.002;2023-03-01T05:08:09;3.00;;;2.27;;
15071;SDS011;7635;56.696;13.002;2023-03-01T05:10:42;3.33;;;2.50;;
15071;SDS011;7635;56.696;13.002;2023-03-01T05:13:11;3.00;;;2.10;;
15071;SDS011;7635;56.696;13.002;2023-03-01T05:15:40;3.50;;;2.30;;
15071;SDS011;7635;56.696;13.002;2023-03-01T05:18:07;3.03;;;2.10;;
15071;SDS011;7635;56.696;13.002;2023-03-01T05:20:37;2.93;;;2.07;;
15071;SDS011;7635;56.696;13.002;2023-03-01T05:23:04;2.17;;;1.97;;
15071;SDS011;7635;56.696;13.002;2023-03-01T05:25:31;2.87;;;2.00;;
15071;SDS011;7635;56.696;13.002;2023-03-01T05:27:59;2.93;;;2.30;;
15071;SDS011;7635;56.696;13.002;2023-03-01T05:30:29;3.50;;;2.40;;
15071;SDS011;7635;56.696;13.002;2023-03-01T05:32:56;2.97;;;2.30;;
15071;SDS011;7635;56.696;13.002;2023-03-01T05:35:23;2.97;;;2.17;;
15071;SDS011;7635;56.696;13.002;2023-03-01T05:37:51;5.00;;;2.80;;
15071;SDS011;7635;56.696;13.002;2023-03-01T05:40:19;5.43;;;3.20;;
15071;SDS011;7635;56.696;13.002;2023-03-01T05:42:47;6.67;;;3.83;;
15071;SDS011;7635;56.696;13.002;2023-03-01T05:45:15;6.40;;;4.13;;
15071;SDS011;7635;56.696;13.002;2023-03-01T05:47:43;5.30;;;3.60;;
15071;SDS011;7635;56.696;13.002;2023-03-01T05:50:12;3.60;;;2.37;;
15071;SDS011;7635;56.696;13.002;2023-03-01T05:52:43;5.07;;;2.90;;
15071;SDS011;7635;56.696;13.002;2023-03-01T05:55:12;3.00;;;2.40;;
15071;SDS011;7635;56.696;13.002;2023-03-01T05:57:39;3.43;;;2.70;;
15071;SDS011;7635;56.696;13.002;2023-03-01T06:00:07;3.70;;;2.40;;
15071;SDS011;7635;56.696;13.002;2023-03-01T06:02:34;2.50;;;2.30;;
15071;SDS011;7635;56.696;13.002;2023-03-01T06:05:01;3.67;;;2.50;;
15071;SDS011;7635;56.696;13.002;2023-03-01T06:07:28;2.83;;;2.27;;
15071;SDS011;7635;56.696;13.002;2023-03-01T06:09:55;2.97;;;2.43;;
15071;SDS011;7635;56.696;13.002;2023-03-01T06:12:23;4.03;;;2.53;;
15071;SDS011;7635;56.696;13.002;2023-03-01T06:14:49;2.90;;;2.27;;
15071;SDS011;7635;56.696;13.002;2023-03-01T06:17:16;3.43;;;2.50;;
15071;SDS011;7635;56.696;13.002;2023-03-01T06:19:43;3.10;;;2.40;;
15071;SDS011;7635;56.696;13.002;2023-03-01T06:22:09;4.13;;;2.03;;
15071;SDS011;7635;56.696;13.002;2023-03-01T06:24:36;4.03;;;2.10;;
15071;SDS011;7635;56.696;13.002;2023-03-01T06:27:03;2.33;;;1.90;;
15071;SDS011;7635;56.696;13.002;2023-03-01T06:29:31;2.50;;;2.10;;
15071;SDS011;7635;56.696;13.002;2023-03-01T06:31:59;2.27;;;1.80;;
15071;SDS011;7635;56.696;13.002;2023-03-01T06:34:25;2.20;;;2.00;;
15071;SDS011;7635;56.696;13.002;2023-03-01T06:36:52;3.07;;;2.13;;
15071;SDS011;7635;56.696;13.002;2023-03-01T06:39:19;2.30;;;2.10;;
15071;SDS011;7635;56.696;13.002;2023-03-01T06:41:46;3.13;;;2.30;;
15071;SDS011;7635;56.696;13.002;2023-03-01T06:44:12;2.47;;;1.93;;
15071;SDS011;7635;56.696;13.002;2023-03-01T06:46:41;2.73;;;2.00;;
15071;SDS011;7635;56.696;13.002;2023-03-01T06:49:07;1.90;;;1.70;;
15071;SDS011;7635;56.696;13.002;2023-03-01T06:51:34;2.90;;;2.10;;
15071;SDS011;7635;56.696;13.002;2023-03-01T06:54:02;2.30;;;2.03;;
15071;SDS011;7635;56.696;13.002;2023-03-01T06:56:29;2.60;;;2.20;;
15071;SDS011;7635;56.696;13.002;2023-03-01T06:58:56;2.90;;;2.50;;
15071;SDS011;7635;56.696;13.002;2023-03-01T07:01:22;3.20;;;2.30;;
15071;SDS011;7635;56.696;13.002;2023-03-01T07:03:50;2.60;;;2.30;;
15071;SDS011;7635;56.696;13.002;2023-03-01T07:06:17;4.17;;;2.30;;
15071;SDS011;7635;56.696;13.002;2023-03-01T07:08:44;5.23;;;2.23;;
15071;SDS011;7635;56.696;13.002;2023-03-01T07:11:11;2.50;;;2.00;;
15071;SDS011;7635;56.696;13.002;2023-03-01T07:13:37;2.70;;;2.20;;
15071;SDS011;7635;56.696;13.002;2023-03-01T07:16:04;2.17;;;2.00;;
15071;SDS011;7635;56.696;13.002;2023-03-01T07:18:32;2.50;;;2.30;;
15071;SDS011;7635;56.696;13.002;2023-03-01T07:21:04;2.77;;;2.30;;
15071;SDS011;7635;56.696;13.002;2023-03-01T07:23:31;2.67;;;2.00;;
15071;SDS011;7635;56.696;13.002;2023-03-01T07:25:58;2.13;;;1.93;;
15071;SDS011;7635;56.696;13.002;2023-03-01T07:28:25;2.20;;;2.00;;
15071;SDS011;7635;56.696;13.002;2023-03-01T07:30:52;3.20;;;2.30;;
15071;SDS011;7635;56.696;13.002;2023-03-01T07:33:20;2.97;;;2.03;;
15071;SDS011;7635;56.696;13.002;2023-03-01T07:35:47;2.60;;;2.00;;
15071;SDS011;7635;56.696;13.002;2023-03-01T07:38:15;2.43;;;1.73;;
15071;SDS011;7635;56.696;13.002;2023-03-01T07:40:41;2.47;;;2.17;;
15071;SDS011;7635;56.696;13.002;2023-03-01T07:43:08;4.37;;;2.80;;
15071;SDS011;7635;56.696;13.002;2023-03-01T07:45:34;3.43;;;2.40;;
15071;SDS011;7635;56.696;13.002;2023-03-01T07:48:01;2.27;;;1.53;;
15071;SDS011;7635;56.696;13.002;2023-03-01T07:50:28;1.77;;;1.50;;
15071;SDS011;7635;56.696;13.002;2023-03-01T07:52:55;2.37;;;1.80;;
15071;SDS011;7635;56.696;13.002;2023-03-01T07:55:23;1.87;;;1.70;;
15071;SDS011;7635;56.696;13.002;2023-03-01T07:57:50;2.20;;;1.93;;
15071;SDS011;7635;56.696;13.002;2023-03-01T08:00:16;5.60;;;2.07;;
15071;SDS011;7635;56.696;13.002;2023-03-01T08:02:44;2.93;;;2.20;;
15071;SDS011;7635;56.696;13.002;2023-03-01T08:05:10;3.93;;;2.60;;
15071;SDS011;7635;56.696;13.002;2023-03-01T08:07:37;3.17;;;2.07;;
15071;SDS011;7635;56.696;13.002;2023-03-01T08:10:04;4.30;;;2.90;;
15071;SDS011;7635;56.696;13.002;2023-03-01T08:12:32;3.60;;;2.43;;
15071;SDS011;7635;56.696;13.002;2023-03-01T08:14:59;3.90;;;2.67;;
15071;SDS011;7635;56.696;13.002;2023-03-01T08:17:26;2.47;;;2.03;;
15071;SDS011;7635;56.696;13.002;2023-03-01T08:19:52;2.43;;;2.10;;
15071;SDS011;7635;56.696;13.002;2023-03-01T08:22:19;2.27;;;2.03;;
15071;SDS011;7635;56.696;13.002;2023-03-01T08:24:46;2.33;;;1.80;;
15071;SDS011;7635;56.696;13.002;2023-03-01T08:27:14;2.17;;;2.00;;
15071;SDS011;7635;56.696;13.002;2023-03-01T08:29:42;3.20;;;2.40;;
15071;SDS011;7635;56.696;13.002;2023-03-01T08:32:09;2.87;;;2.30;;
15071;SDS011;7635;56.696;13.002;2023-03-01T08:34:36;3.07;;;2.43;;
15071;SDS011;7635;56.696;13.002;2023-03-01T08:37:02;2.80;;;2.30;;
15071;SDS011;7635;56.696;13.002;2023-03-01T08:39:29;5.03;;;2.70;;
15071;SDS011;7635;56.696;13.002;2023-03-01T08:41:56;3.70;;;2.70;;
15071;SDS011;7635;56.696;13.002;2023-03-01T08:44:23;2.97;;;2.67;;
15071;SDS011;7635;56.696;13.002;2023-03-01T08:46:52;3.43;;;2.47;;
15071;SDS011;7635;56.696;13.002;2023-03-01T08:49:21;2.63;;;2.43;;
15071;SDS011;7635;56.696;13.002;2023-03-01T08:51:48;3.83;;;2.40;;
15071;SDS011;7635;56.696;13.002;2023-03-01T08:54:16;2.93;;;2.33;;
15071;SDS011;7635;56.696;13.002;2023-03-01T08:56:44;3.17;;;2.30;;
15071;SDS011;7635;56.696;13.002;2023-03-01T08:59:11;2.53;;;2.03;;
15071;SDS011;7635;56.696;13.002;2023-03-01T09:01:39;2.93;;;2.30;;
15071;SDS011;7635;56.696;13.002;2023-03-01T09:04:09;2.70;;;2.17;;
15071;SDS011;7635;56.696;13.002;2023-03-01T09:06:36;2.87;;;2.20;;
15071;SDS011;7635;56.696;13.002;2023-03-01T09:09:03;3.07;;;2.10;;
15071;SDS011;7635;56.696;13.002;2023-03-01T09:11:31;3.67;;;2.07;;
15071;SDS011;7635;56.696;13.002;2023-03-01T09:13:58;3.77;;;2.13;;
15071;SDS011;7635;56.696;13.002;2023-03-01T09:16:25;2.60;;;2.30;;
15071;SDS011;7635;56.696;13.002;2023-03-01T09:18:52;2.80;;;2.10;;
15071;SDS011;7635;56.696;13.002;2023-03-01T09:21:21;2.67;;;2.13;;
15071;SDS011;7635;56.696;13.002;2023-03-01T09:23:49;2.77;;;2.17;;
15071;SDS011;7635;56.696;13.002;2023-03-01T09:26:17;3.30;;;2.20;;
15071;SDS011;7635;56.696;13.002;2023-03-01T09:28:46;2.73;;;2.37;;
15071;SDS011;7635;56.696;13.002;2023-03-01T09:31:13;3.40;;;2.60;;
15071;SDS011;7635;56.696;13.002;2023-03-01T09:33:42;3.90;;;2.60;;
15071;SDS011;7635;56.696;13.002;2023-03-01T09:36:10;2.50;;;2.30;;
15071;SDS011;7635;56.696;13.002;2023-03-01T09:38:39;2.50;;;2.20;;
15071;SDS011;7635;56.696;13.002;2023-03-01T09:41:09;2.73;;;2.50;;
15071;SDS011;7635;56.696;13.002;2023-03-01T09:43:41;2.23;;;1.97;;
15071;SDS011;7635;56.696;13.002;2023-03-01T09:46:12;2.50;;;2.30;;
15071;SDS011;7635;56.696;13.002;2023-03-01T09:48:42;2.43;;;2.13;;
15071;SDS011;7635;56.696;13.002;2023-03-01T09:51:12;3.43;;;2.60;;
15071;SDS011;7635;56.696;13.002;2023-03-01T09:53:44;3.03;;;2.33;;
15071;SDS011;7635;56.696;13.002;2023-03-01T09:56:12;2.20;;;2.00;;
15071;SDS011;7635;56.696;13.002;2023-03-01T09:58:47;3.33;;;2.27;;
15071;SDS011;7635;56.696;13.002;2023-03-01T10:01:23;2.17;;;1.87;;
15071;SDS011;7635;56.696;13.002;2023-03-01T10:04:24;3.23;;;1.93;;
15071;SDS011;7635;56.696;13.002;2023-03-01T10:06:58;2.80;;;1.70;;
15071;SDS011;7635;56.696;13.002;2023-03-01T10:09:34;3.07;;;2.20;;
15071;SDS011;7635;56.696;13.002;2023-03-01T10:12:04;2.27;;;2.00;;
15071;SDS011;7635;56.696;13.002;2023-03-01T10:14:35;2.03;;;1.70;;
15071;SDS011;7635;56.696;13.002;2023-03-01T10:17:05;2.20;;;1.90;;
15071;SDS011;7635;56.696;13.002;2023-03-01T10:19:44;3.07;;;2.10;;
15071;SDS011;7635;56.696;13.002;2023-03-01T10:22:13;2.47;;;2.03;;
15071;SDS011;7635;56.696;13.002;2023-03-01T10:24:43;1.80;;;1.63;;
15071;SDS011;7635;56.696;13.002;2023-03-01T10:27:12;1.70;;;1.60;;
15071;SDS011;7635;56.696;13.002;2023-03-01T10:29:45;1.83;;;1.70;;
15071;SDS011;7635;56.696;13.002;2023-03-01T10:32:17;1.73;;;1.53;;
15071;SDS011;7635;56.696;13.002;2023-03-01T10:34:46;1.57;;;1.47;;
15071;SDS011;7635;56.696;13.002;2023-03-01T10:37:14;1.70;;;1.60;;
15071;SDS011;7635;56.696;13.002;2023-03-01T10:39:57;1.50;;;1.40;;
15071;SDS011;7635;56.696;13.002;2023-03-01T10:42:31;2.17;;;1.70;;
15071;SDS011;7635;56.696;13.002;2023-03-01T10:45:14;1.60;;;1.43;;
15071;SDS011;7635;56.696;13.002;2023-03-01T10:47:53;1.80;;;1.40;;
15071;SDS011;7635;56.696;13.002;2023-03-01T10:50:30;2.67;;;1.57;;
15071;SDS011;7635;56.696;13.002;2023-03-01T10:52:58;1.67;;;1.57;;
15071;SDS011;7635;56.696;13.002;2023-03-01T10:55:30;1.37;;;1.27;;
15071;SDS011;7635;56.696;13.002;2023-03-01T10:58:07;1.60;;;1.43;;
15071;SDS011;7635;56.696;13.002;2023-03-01T11:00:46;1.77;;;1.50;;
15071;SDS011;7635;56.696;13.002;2023-03-01T11:03:16;2.20;;;1.47;;
15071;SDS011;7635;56.696;13.002;2023-03-01T11:05:56;1.60;;;1.50;;
15071;SDS011;7635;56.696;13.002;2023-03-01T11:08:29;1.60;;;1.50;;
15071;SDS011;7635;56.696;13.002;2023-03-01T11:11:13;2.73;;;2.17;;
15071;SDS011;7635;56.696;13.002;2023-03-01T11:13:51;2.57;;;2.27;;
15071;SDS011;7635;56.696;13.002;2023-03-01T11:19:19;2.47;;;2.27;;
15071;SDS011;7635;56.696;13.002;2023-03-01T11:21:50;3.37;;;2.33;;
15071;SDS011;7635;56.696;13.002;2023-03-01T11:24:22;3.87;;;2.63;;
15071;SDS011;7635;56.696;13.002;2023-03-01T11:26:55;3.00;;;2.47;;
15071;SDS011;7635;56.696;13.002;2023-03-01T11:29:26;4.33;;;2.67;;
15071;SDS011;7635;56.696;13.002;2023-03-01T11:31:56;4.67;;;2.50;;
15071;SDS011;7635;56.696;13.002;2023-03-01T11:34:30;4.57;;;2.87;;
15071;SDS011;7635;56.696;13.002;2023-03-01T11:37:09;4.50;;;2.77;;
15071;SDS011;7635;56.696;13.002;2023-03-01T11:39:43;5.30;;;2.47;;
15071;SDS011;7635;56.696;13.002;2023-03-01T11:42:17;4.53;;;2.63;;
15071;SDS011;7635;56.696;13.002;2023-03-01T11:44:47;5.40;;;3.10;;
15071;SDS011;7635;56.696;13.002;2023-03-01T11:47:24;6.60;;;2.97;;
15071;SDS011;7635;56.696;13.002;2023-03-01T11:50:05;4.87;;;2.87;;
15071;SDS011;7635;56.696;13.002;2023-03-01T11:52:55;3.60;;;2.67;;
15071;SDS011;7635;56.696;13.002;2023-03-01T11:55:36;2.77;;;2.30;;
15071;SDS011;7635;56.696;13.002;2023-03-01T11:58:22;3.93;;;2.43;;
15071;SDS011;7635;56.696;13.002;2023-03-01T12:01:03;3.63;;;2.80;;
15071;SDS011;7635;56.696;13.002;2023-03-01T12:03:58;2.80;;;2.40;;
15071;SDS011;7635;56.696;13.002;2023-03-01T12:06:48;3.33;;;2.67;;
15071;SDS011;7635;56.696;13.002;2023-03-01T12:09:25;2.50;;;2.30;;
15071;SDS011;7635;56.696;13.002;2023-03-01T12:12:06;4.80;;;2.70;;
15071;SDS011;7635;56.696;13.002;2023-03-01T12:14:55;2.67;;;2.07;;
15071;SDS011;7635;56.696;13.002;2023-03-01T12:17:38;2.93;;;2.20;;
15071;SDS011;7635;56.696;13.002;2023-03-01T12:22:55;2.40;;;2.10;;
15071;SDS011;7635;56.696;13.002;2023-03-01T12:25:52;2.73;;;2.03;;
15071;SDS011;7635;56.696;13.002;2023-03-01T12:31:38;3.97;;;2.90;;
15071;SDS011;7635;56.696;13.002;2023-03-01T12:34:44;4.67;;;2.67;;
15071;SDS011;7635;56.696;13.002;2023-03-01T12:37:29;3.67;;;2.60;;
15071;SDS011;7635;56.696;13.002;2023-03-01T12:40:23;3.73;;;2.60;;
15071;SDS011;7635;56.696;13.002;2023-03-01T12:43:02;5.93;;;2.17;;
15071;SDS011;7635;56.696;13.002;2023-03-01T12:45:54;3.40;;;2.40;;
15071;SDS011;7635;56.696;13.002;2023-03-01T12:48:40;3.20;;;2.30;;
15071;SDS011;7635;56.696;13.002;2023-03-01T12:51:12;3.80;;;2.67;;
15071;SDS011;7635;56.696;13.002;2023-03-01T12:53:42;2.53;;;2.33;;
15071;SDS011;7635;56.696;13.002;2023-03-01T12:56:14;6.57;;;2.67;;
15071;SDS011;7635;56.696;13.002;2023-03-01T12:58:46;3.60;;;2.40;;
15071;SDS011;7635;56.696;13.002;2023-03-01T13:01:28;4.93;;;2.30;;
15071;SDS011;7635;56.696;13.002;2023-03-01T13:04:15;3.23;;;2.40;;
15071;SDS011;7635;56.696;13.002;2023-03-01T13:06:58;5.17;;;2.80;;
15071;SDS011;7635;56.696;13.002;2023-03-01T13:09:39;3.53;;;2.80;;
15071;SDS011;7635;56.696;13.002;2023-03-01T13:18:02;5.60;;;3.00;;
15071;SDS011;7635;56.696;13.002;2023-03-01T13:20:32;3.40;;;2.70;;
15071;SDS011;7635;56.696;13.002;2023-03-01T13:23:11;3.80;;;3.33;;
15071;SDS011;7635;56.696;13.002;2023-03-01T13:37:21;3.23;;;2.57;;
15071;SDS011;7635;56.696;13.002;2023-03-01T13:39:51;2.57;;;2.20;;
15071;SDS011;7635;56.696;13.002;2023-03-01T13:42:31;5.63;;;2.40;;
15071;SDS011;7635;56.696;13.002;2023-03-01T13:45:21;2.17;;;1.97;;
15071;SDS011;7635;56.696;13.002;2023-03-01T13:47:53;3.97;;;1.97;;
15071;SDS011;7635;56.696;13.002;2023-03-01T13:50:24;2.40;;;2.00;;
15071;SDS011;7635;56.696;13.002;2023-03-01T13:52:55;2.13;;;1.90;;
15071;SDS011;7635;56.696;13.002;2023-03-01T13:55:27;2.60;;;1.87;;
15071;SDS011;7635;56.696;13.002;2023-03-01T13:58:01;1.83;;;1.73;;
15071;SDS011;7635;56.696;13.002;2023-03-01T14:00:32;1.77;;;1.67;;
15071;SDS011;7635;56.696;13.002;2023-03-01T14:03:08;1.50;;;1.40;;
15071;SDS011;7635;56.696;13.002;2023-03-01T14:05:36;1.70;;;1.60;;
15071;SDS011;7635;56.696;13.002;2023-03-01T14:08:14;2.37;;;1.63;;
15071;SDS011;7635;56.696;13.002;2023-03-01T14:10:48;2.37;;;2.00;;
15071;SDS011;7635;56.696;13.002;2023-03-01T14:13:25;2.50;;;1.80;;
15071;SDS011;7635;56.696;13.002;2023-03-01T14:16:09;2.00;;;1.80;;
15071;SDS011;7635;56.696;13.002;2023-03-01T14:18:44;1.90;;;1.60;;
15071;SDS011;7635;56.696;13.002;2023-03-01T14:21:17;2.33;;;1.90;;
15071;SDS011;7635;56.696;13.002;2023-03-01T14:23:45;2.10;;;1.80;;
15071;SDS011;7635;56.696;13.002;2023-03-01T14:26:12;1.10;;;1.07;;
15071;SDS011;7635;56.696;13.002;2023-03-01T14:28:39;1.13;;;1.13;;
15071;SDS011;7635;56.696;13.002;2023-03-01T14:34:04;1.93;;;1.73;;
15071;SDS011;7635;56.696;13.002;2023-03-01T14:36:32;1.47;;;1.37;;
15071;SDS011;7635;56.696;13.002;2023-03-01T14:39:15;2.00;;;1.50;;
15071;SDS011;7635;56.696;13.002;2023-03-01T14:41:43;2.63;;;1.77;;
15071;SDS011;7635;56.696;13.002;2023-03-01T14:44:12;1.47;;;1.37;;
15071;SDS011;7635;56.696;13.002;2023-03-01T14:46:43;1.57;;;1.40;;
15071;SDS011;7635;56.696;13.002;2023-03-01T14:49:11;2.03;;;1.70;;
15071;SDS011;7635;56.696;13.002;2023-03-01T14:51:41;1.50;;;1.40;;
15071;SDS011;7635;56.696;13.002;2023-03-01T14:54:20;1.43;;;1.30;;
15071;SDS011;7635;56.696;13.002;2023-03-01T14:56:49;0.90;;;0.90;;
15071;SDS011;7635;56.696;13.002;2023-03-01T14:59:18;1.63;;;1.40;;
15071;SDS011;7635;56.696;13.002;2023-03-01T15:01:47;1.37;;;1.27;;
15071;SDS011;7635;56.696;13.002;2023-03-01T15:04:14;1.43;;;1.33;;
15071;SDS011;7635;56.696;13.002;2023-03-01T15:06:41;1.67;;;1.20;;
15071;SDS011;7635;56.696;13.002;2023-03-01T15:09:11;1.40;;;1.30;;
15071;SDS011;7635;56.696;13.002;2023-03-01T15:11:43;1.30;;;1.20;;
15071;SDS011;7635;56.696;13.002;2023-03-01T15:14:27;1.87;;;1.47;;
15071;SDS011;7635;56.696;13.002;2023-03-01T15:16:54;4.27;;;1.30;;
15071;SDS011;7635;56.696;13.002;2023-03-01T15:19:22;1.27;;;1.17;;
15071;SDS011;7635;56.696;13.002;2023-03-01T15:21:53;1.40;;;1.30;;
15071;SDS011;7635;56.696;13.002;2023-03-01T15:24:22;1.30;;;1.23;;
15071;SDS011;7635;56.696;13.002;2023-03-01T15:26:52;1.30;;;1.20;;
15071;SDS011;7635;56.696;13.002;2023-03-01T15:29:23;1.13;;;1.13;;
15071;SDS011;7635;56.696;13.002;2023-03-01T15:31:55;1.20;;;1.13;;
15071;SDS011;7635;56.696;13.002;2023-03-01T15:34:24;3.30;;;1.27;;
15071;SDS011;7635;56.696;13.002;2023-03-01T15:36:52;2.20;;;1.43;;